Time;durP1;ratioP1;P1;durP2;ratioP2;P2;SDS_P1;SDS_P2;PMS_P1;PMS_P2;Temp;Humidity;BMP_temperature;BMP_pressure;BME280_temperature;BME280_humidity;BME280_pressure;Samples;Min_cycle;Max_cycle;Signal;HPM_P1;HPM_P2
2021/11/05 00:01:28;;;;;;;5.40;3.30;;;7.90;86.20;;;;;;5031742;28;20387;-74
2021/11/05 00:03:54;;;;;;;9.32;3.10;;;7.90;86.30;;;;;;5027512;28;20045;-73
2021/11/05 00:06:19;;;;;;;3.55;2.90;;;7.80;86.20;;;;;;5028801;28;20060;-74
2021/11/05 00:08:45;;;;;;;3.95;3.20;;;7.80;86.30;;;;;;5027737;28;20025;-74
2021/11/05 00:11:11;;;;;;;3.33;3.00;;;7.70;86.40;;;;;;5028489;28;20072;-74
2021/11/05 00:13:36;;;;;;;5.25;3.72;;;7.70;86.60;;;;;;5030705;28;20644;-74
2021/11/05 00:16:02;;;;;;;4.80;3.55;;;7.70;86.60;;;;;;5031083;28;20033;-74
2021/11/05 00:18:27;;;;;;;4.53;3.25;;;7.70;86.60;;;;;;5030501;28;20037;-73
2021/11/05 00:20:53;;;;;;;3.58;3.17;;;7.80;86.60;;;;;;5029843;28;20413;-73
2021/11/05 00:23:19;;;;;;;3.88;3.30;;;7.70;86.50;;;;;;5028888;28;20025;-73
2021/11/05 00:25:44;;;;;;;4.95;3.80;;;7.70;86.50;;;;;;5031055;28;20025;-73
2021/11/05 00:28:10;;;;;;;3.88;3.28;;;7.80;86.50;;;;;;5029286;28;20045;-73
2021/11/05 00:30:35;;;;;;;2.08;1.92;;;7.80;86.50;;;;;;5028628;28;20116;-73
2021/11/05 00:33:01;;;;;;;4.40;3.28;;;7.80;86.60;;;;;;5027368;28;20056;-73
2021/11/05 00:35:27;;;;;;;3.47;3.17;;;7.70;86.50;;;;;;5027839;28;20030;-73
2021/11/05 00:37:52;;;;;;;3.90;3.50;;;7.80;86.70;;;;;;5029350;28;20084;-73
2021/11/05 00:40:20;;;;;;;4.28;3.22;;;7.80;86.60;;;;;;5025526;28;20103;-73
2021/11/05 00:42:45;;;;;;;4.30;3.53;;;7.80;86.60;;;;;;5029050;28;20395;-73
2021/11/05 00:45:12;;;;;;;4.75;3.50;;;7.80;86.60;;;;;;5029597;28;20025;-73
2021/11/05 00:47:37;;;;;;;4.57;3.20;;;7.70;86.50;;;;;;5027045;28;20057;-73
2021/11/05 00:50:05;;;;;;;4.47;3.38;;;7.80;86.50;;;;;;5029128;28;20064;-73
2021/11/05 00:52:30;;;;;;;4.40;3.33;;;7.80;86.50;;;;;;5029223;28;20057;-73
2021/11/05 00:54:56;;;;;;;4.43;3.45;;;7.80;86.50;;;;;;5028969;28;20122;-73
2021/11/05 00:57:21;;;;;;;4.10;3.28;;;7.80;86.60;;;;;;5031169;28;20391;-73
2021/11/05 00:59:47;;;;;;;4.68;3.05;;;7.80;86.60;;;;;;5026496;28;20087;-73
2021/11/05 01:02:13;;;;;;;4.45;3.40;;;7.80;86.60;;;;;;5031861;28;20112;-73
2021/11/05 01:04:39;;;;;;;3.92;3.10;;;7.80;86.50;;;;;;5030711;28;20021;-73
2021/11/05 01:07:05;;;;;;;4.50;3.20;;;7.80;86.50;;;;;;5028289;28;20060;-73
2021/11/05 01:09:30;;;;;;;3.25;2.88;;;7.80;86.50;;;;;;5027717;28;20108;-73
2021/11/05 01:11:56;;;;;;;3.65;3.03;;;7.80;86.40;;;;;;5030039;28;20179;-74
2021/11/05 01:14:22;;;;;;;3.38;2.88;;;7.80;86.30;;;;;;5029768;28;20021;-73
2021/11/05 01:16:47;;;;;;;3.22;2.80;;;7.80;86.40;;;;;;5029442;28;20512;-73
2021/11/05 01:19:13;;;;;;;3.28;2.80;;;7.90;86.40;;;;;;5028168;28;20171;-73
2021/11/05 01:21:39;;;;;;;3.28;2.75;;;7.80;86.40;;;;;;5029255;28;20507;-73
2021/11/05 01:24:04;;;;;;;3.08;2.78;;;7.80;86.40;;;;;;5025885;28;20499;-73
2021/11/05 01:26:30;;;;;;;3.45;2.67;;;7.80;86.40;;;;;;5031099;28;20419;-73
2021/11/05 01:28:55;;;;;;;3.67;2.78;;;7.80;86.40;;;;;;5026370;28;20095;-73
2021/11/05 01:31:22;;;;;;;3.40;2.60;;;7.80;86.30;;;;;;5027094;28;20557;-73
2021/11/05 01:33:48;;;;;;;5.00;2.60;;;7.80;86.30;;;;;;5029334;28;20022;-73
2021/11/05 01:36:14;;;;;;;3.42;2.83;;;7.80;86.40;;;;;;5023255;28;20503;-73
2021/11/05 01:38:40;;;;;;;2.95;2.65;;;7.70;86.40;;;;;;5028602;28;20022;-73
2021/11/05 01:41:05;;;;;;;2.90;2.42;;;7.70;86.50;;;;;;5024827;28;20100;-73
2021/11/05 01:43:31;;;;;;;3.00;2.50;;;7.70;86.50;;;;;;5029116;28;20117;-74
2021/11/05 01:45:57;;;;;;;4.18;2.60;;;7.80;86.50;;;;;;5027334;28;20083;-74
2021/11/05 01:48:22;;;;;;;3.88;2.60;;;7.80;86.40;;;;;;5028814;28;20107;-73
2021/11/05 01:50:48;;;;;;;4.75;2.70;;;7.70;86.30;;;;;;5029145;28;20041;-73
2021/11/05 01:53:14;;;;;;;3.17;2.58;;;7.70;86.50;;;;;;5028287;28;20029;-73
2021/11/05 01:55:39;;;;;;;4.85;2.90;;;7.70;86.50;;;;;;5029528;28;20032;-73
2021/11/05 01:58:05;;;;;;;3.80;2.50;;;7.70;86.50;;;;;;5025433;28;20038;-74
2021/11/05 02:00:31;;;;;;;3.13;2.65;;;7.70;86.40;;;;;;5030286;28;20032;-73
2021/11/05 02:02:57;;;;;;;4.43;2.20;;;7.70;86.40;;;;;;5028301;28;20038;-73
2021/11/05 02:05:23;;;;;;;2.97;2.40;;;7.70;86.40;;;;;;5029753;28;20017;-73
2021/11/05 02:07:51;;;;;;;3.83;2.30;;;7.70;86.40;;;;;;5025520;28;20103;-73
2021/11/05 02:10:18;;;;;;;5.05;2.40;;;7.70;86.40;;;;;;5029822;28;20108;-73
2021/11/05 02:12:45;;;;;;;7.82;2.30;;;7.80;86.50;;;;;;5026723;28;20091;-73
2021/11/05 02:15:11;;;;;;;7.28;2.38;;;7.80;86.40;;;;;;5025449;28;20020;-73
2021/11/05 02:17:37;;;;;;;10.77;2.38;;;7.80;86.30;;;;;;5024920;28;20052;-73
2021/11/05 02:20:07;;;;;;;5.28;2.10;;;7.70;86.20;;;;;;5030071;28;20449;-73
2021/11/05 02:22:32;;;;;;;5.88;2.03;;;7.70;86.20;;;;;;5020846;28;20025;-73
2021/11/05 02:24:58;;;;;;;7.95;1.88;;;7.70;86.30;;;;;;5027462;28;20044;-74
2021/11/05 02:27:28;;;;;;;6.93;2.20;;;7.70;86.40;;;;;;5022726;28;20052;-74
2021/11/05 02:29:53;;;;;;;7.50;1.85;;;7.70;86.50;;;;;;5026700;28;20125;-73
2021/11/05 02:32:19;;;;;;;5.25;1.80;;;7.70;86.40;;;;;;5026048;28;20145;-73
2021/11/05 02:34:44;;;;;;;1.75;1.55;;;7.70;86.40;;;;;;5029015;28;20029;-73
2021/11/05 02:37:10;;;;;;;5.80;2.00;;;7.70;86.40;;;;;;5025032;28;20029;-73
2021/11/05 02:39:36;;;;;;;6.68;1.77;;;7.60;86.40;;;;;;5025930;28;20021;-73
2021/11/05 02:42:02;;;;;;;3.63;1.77;;;7.60;86.50;;;;;;5022788;28;20447;-73
2021/11/05 02:44:28;;;;;;;6.68;1.70;;;7.60;86.50;;;;;;5031251;28;20029;-74
2021/11/05 02:46:56;;;;;;;3.08;1.80;;;7.60;86.50;;;;;;5029185;28;20045;-74
2021/11/05 02:49:22;;;;;;;4.70;1.70;;;7.60;86.50;;;;;;5029704;28;20046;-73
2021/11/05 02:51:49;;;;;;;2.20;1.50;;;7.60;86.60;;;;;;5030141;28;20068;-72
2021/11/05 02:54:15;;;;;;;5.95;1.92;;;7.60;86.50;;;;;;5032520;28;20021;-73
2021/11/05 02:56:41;;;;;;;1.40;1.30;;;7.50;86.50;;;;;;5029266;28;20094;-72
2021/11/05 02:59:07;;;;;;;2.42;1.73;;;7.50;86.60;;;;;;5030942;28;20025;-73
2021/11/05 03:01:34;;;;;;;2.35;1.48;;;7.50;86.70;;;;;;5031772;28;20162;-73
2021/11/05 03:04:04;;;;;;;3.10;1.70;;;7.50;86.70;;;;;;5029695;28;20038;-73
2021/11/05 03:06:38;;;;;;;1.70;1.60;;;7.50;86.70;;;;;;5031902;28;20037;-73
2021/11/05 03:09:11;;;;;;;1.45;1.35;;;7.50;86.70;;;;;;5031618;28;20040;-73
2021/11/05 03:11:37;;;;;;;2.28;1.45;;;7.50;86.70;;;;;;5031784;28;20030;-73
2021/11/05 03:14:04;;;;;;;1.75;1.60;;;7.50;86.70;;;;;;5031158;28;20557;-73
2021/11/05 03:16:30;;;;;;;1.55;1.45;;;7.50;86.70;;;;;;5031412;28;20017;-73
2021/11/05 03:18:55;;;;;;;1.58;1.48;;;7.50;86.70;;;;;;5027878;28;20036;-74
2021/11/05 03:21:21;;;;;;;2.35;1.70;;;7.50;86.70;;;;;;5032177;28;20025;-73
2021/11/05 03:23:46;;;;;;;2.33;1.60;;;7.50;86.70;;;;;;5029416;28;20040;-73
2021/11/05 03:26:12;;;;;;;2.42;1.60;;;7.60;86.70;;;;;;5031494;28;20034;-73
2021/11/05 03:28:37;;;;;;;2.75;1.90;;;7.60;86.70;;;;;;5027956;28;20095;-73
2021/11/05 03:31:03;;;;;;;1.77;1.50;;;7.50;86.70;;;;;;5034115;28;20025;-73
2021/11/05 03:33:29;;;;;;;1.75;1.48;;;7.60;86.70;;;;;;5030460;28;20033;-73
2021/11/05 03:35:54;;;;;;;2.50;1.40;;;7.60;86.70;;;;;;5032901;28;20033;-72
2021/11/05 03:38:20;;;;;;;1.40;1.30;;;7.60;86.70;;;;;;5032688;28;20056;-73
2021/11/05 03:40:45;;;;;;;1.55;1.30;;;7.60;86.70;;;;;;5027614;28;20042;-73
2021/11/05 03:43:11;;;;;;;2.90;1.58;;;7.60;86.60;;;;;;5026426;28;20048;-73
2021/11/05 03:45:36;;;;;;;1.77;1.50;;;7.60;86.70;;;;;;5030830;28;20028;-73
2021/11/05 03:48:02;;;;;;;2.83;1.55;;;7.60;86.70;;;;;;5026747;28;20029;-73
2021/11/05 03:50:28;;;;;;;2.25;1.40;;;7.60;86.70;;;;;;5030594;28;20022;-73
2021/11/05 03:52:53;;;;;;;1.35;1.20;;;7.60;86.70;;;;;;5030279;28;20038;-73
2021/11/05 03:55:19;;;;;;;1.73;1.13;;;7.60;86.70;;;;;;5029341;28;20075;-73
2021/11/05 03:57:44;;;;;;;1.70;1.35;;;7.70;86.80;;;;;;5028438;28;20087;-73
2021/11/05 04:00:11;;;;;;;1.40;1.17;;;7.70;86.70;;;;;;5030114;28;20025;-73
2021/11/05 04:02:37;;;;;;;1.67;1.38;;;7.70;86.70;;;;;;5029492;28;20045;-73
2021/11/05 04:05:04;;;;;;;1.58;1.40;;;7.70;86.70;;;;;;5030680;28;20049;-73
2021/11/05 04:07:29;;;;;;;1.65;1.40;;;7.70;86.60;;;;;;5024925;28;20021;-73
2021/11/05 04:09:55;;;;;;;2.03;1.30;;;7.70;86.70;;;;;;5029519;28;20088;-73
2021/11/05 04:12:21;;;;;;;1.08;0.98;;;7.70;86.60;;;;;;5029498;28;20132;-73
2021/11/05 04:14:46;;;;;;;2.70;1.23;;;7.70;86.60;;;;;;5030237;28;20104;-73
2021/11/05 04:17:16;;;;;;;1.58;1.20;;;7.70;86.60;;;;;;5029833;28;20025;-73
2021/11/05 04:19:42;;;;;;;1.30;1.20;;;7.70;86.60;;;;;;5028305;28;20061;-73
2021/11/05 04:22:08;;;;;;;2.88;1.30;;;7.80;86.60;;;;;;5026653;28;20025;-73
2021/11/05 04:24:33;;;;;;;1.75;1.23;;;7.80;86.60;;;;;;5025174;28;20086;-73
2021/11/05 04:26:59;;;;;;;1.77;1.20;;;7.80;86.60;;;;;;5033502;28;20828;-73
2021/11/05 04:29:25;;;;;;;2.90;1.27;;;7.80;86.60;;;;;;5026448;28;20028;-72
2021/11/05 04:31:51;;;;;;;1.25;1.00;;;7.80;86.50;;;;;;5030106;28;20438;-73
2021/11/05 04:34:16;;;;;;;1.20;1.10;;;7.90;86.60;;;;;;5026840;28;20017;-73
2021/11/05 04:36:42;;;;;;;1.70;1.10;;;7.90;86.60;;;;;;5026350;28;20047;-72
2021/11/05 04:39:14;;;;;;;1.30;1.05;;;7.90;86.50;;;;;;5028576;28;20022;-72
2021/11/05 04:41:40;;;;;;;1.20;1.10;;;7.90;86.50;;;;;;5030225;28;20029;-73
2021/11/05 04:44:06;;;;;;;2.05;1.20;;;7.90;86.60;;;;;;5028699;28;20811;-73
2021/11/05 04:46:32;;;;;;;1.85;1.20;;;7.80;86.60;;;;;;5026994;28;20029;-73
2021/11/05 04:48:58;;;;;;;1.45;1.25;;;7.80;86.70;;;;;;5028764;28;20021;-73
2021/11/05 04:51:24;;;;;;;2.40;1.20;;;7.80;86.70;;;;;;5028915;28;20038;-73
2021/11/05 04:53:49;;;;;;;2.17;1.23;;;7.80;86.60;;;;;;5027237;28;20037;-72
2021/11/05 04:56:15;;;;;;;1.50;1.10;;;7.80;86.70;;;;;;5029262;28;20036;-72
2021/11/05 04:58:40;;;;;;;2.10;1.00;;;7.80;86.70;;;;;;5022459;28;20018;-72
2021/11/05 05:01:06;;;;;;;1.83;1.30;;;7.80;86.70;;;;;;5026222;28;20048;-72
2021/11/05 05:03:31;;;;;;;1.20;1.10;;;7.80;86.70;;;;;;5026401;28;20025;-73
2021/11/05 05:05:57;;;;;;;1.17;1.05;;;7.80;86.70;;;;;;5029878;28;20021;-73
2021/11/05 05:08:23;;;;;;;1.88;1.27;;;7.70;86.60;;;;;;5028508;28;20033;-73
2021/11/05 05:10:48;;;;;;;3.47;1.20;;;7.70;86.70;;;;;;5025690;28;20080;-73
2021/11/05 05:13:14;;;;;;;1.30;1.17;;;7.60;86.70;;;;;;5027931;28;20124;-72
2021/11/05 05:15:39;;;;;;;2.40;1.25;;;7.60;86.70;;;;;;5021618;28;20139;-73
2021/11/05 05:18:05;;;;;;;2.45;1.13;;;7.60;86.70;;;;;;5030340;28;20030;-72
2021/11/05 05:20:30;;;;;;;1.38;1.20;;;7.60;86.80;;;;;;5024701;28;20022;-72
2021/11/05 05:22:56;;;;;;;1.40;1.30;;;7.60;86.70;;;;;;5025371;28;20018;-73
2021/11/05 05:25:22;;;;;;;1.40;1.20;;;7.60;86.70;;;;;;5027534;28;20036;-72
2021/11/05 05:27:49;;;;;;;2.75;1.30;;;7.60;86.70;;;;;;5026529;28;20536;-72
2021/11/05 05:30:17;;;;;;;2.22;1.40;;;7.60;86.60;;;;;;5030617;28;20104;-72
2021/11/05 05:32:44;;;;;;;2.17;1.30;;;7.50;86.50;;;;;;5027935;28;20056;-72
2021/11/05 05:35:10;;;;;;;1.58;1.35;;;7.50;86.60;;;;;;5027602;28;20021;-72
2021/11/05 05:37:36;;;;;;;1.40;1.20;;;7.50;86.50;;;;;;5029109;28;20036;-72
2021/11/05 05:40:03;;;;;;;3.90;1.50;;;7.50;86.50;;;;;;5028605;28;20025;-72
2021/11/05 05:42:28;;;;;;;2.20;1.45;;;7.50;86.60;;;;;;5029638;28;20026;-72
2021/11/05 05:44:54;;;;;;;2.35;1.30;;;7.50;86.60;;;;;;5025892;28;20041;-73
2021/11/05 05:47:20;;;;;;;1.50;1.40;;;7.50;87.10;;;;;;5026094;28;20045;-72
2021/11/05 05:49:48;;;;;;;2.47;1.50;;;7.50;86.50;;;;;;5022372;28;20018;-73
2021/11/05 05:52:14;;;;;;;3.15;1.40;;;7.60;86.60;;;;;;5025212;28;20048;-73
2021/11/05 05:54:39;;;;;;;1.50;1.17;;;7.60;86.50;;;;;;5028169;28;20025;-72
2021/11/05 05:57:05;;;;;;;3.00;1.65;;;7.60;86.50;;;;;;5028418;28;20037;-73
2021/11/05 05:59:31;;;;;;;2.90;1.70;;;7.60;86.50;;;;;;5027557;28;20021;-73
2021/11/05 06:01:56;;;;;;;2.35;1.80;;;7.60;86.60;;;;;;5027433;28;20040;-72
2021/11/05 06:04:26;;;;;;;2.83;1.48;;;7.70;86.60;;;;;;5032588;28;20017;-73
2021/11/05 06:06:51;;;;;;;2.92;1.60;;;7.70;86.60;;;;;;5026187;28;20440;-73
2021/11/05 06:09:17;;;;;;;1.90;1.50;;;7.70;86.60;;;;;;5026916;28;20049;-73
2021/11/05 06:11:42;;;;;;;2.83;1.85;;;7.70;86.60;;;;;;5027101;28;20045;-73
2021/11/05 06:14:08;;;;;;;3.28;1.90;;;7.70;86.60;;;;;;5028501;28;20468;-73
2021/11/05 06:16:33;;;;;;;2.60;1.80;;;7.70;86.70;;;;;;5027644;28;20125;-73
2021/11/05 06:19:00;;;;;;;4.38;1.70;;;7.70;86.60;;;;;;5024445;28;20025;-73
2021/11/05 06:21:26;;;;;;;3.40;2.15;;;7.70;86.70;;;;;;5025354;28;20029;-73
2021/11/05 06:23:52;;;;;;;3.30;1.83;;;7.70;86.70;;;;;;5026785;28;20017;-72
2021/11/05 06:26:18;;;;;;;2.92;1.90;;;7.70;86.70;;;;;;5025915;28;20049;-72
2021/11/05 06:28:44;;;;;;;2.42;1.70;;;7.70;86.70;;;;;;5026460;28;20487;-72
2021/11/05 06:31:09;;;;;;;3.60;1.60;;;7.70;86.60;;;;;;5024635;28;20523;-73
2021/11/05 06:33:35;;;;;;;3.15;1.70;;;7.70;86.70;;;;;;5023805;28;20025;-72
2021/11/05 06:36:00;;;;;;;3.03;1.60;;;7.70;86.80;;;;;;5023117;28;20018;-73
2021/11/05 06:38:26;;;;;;;2.60;1.45;;;7.70;86.80;;;;;;5027610;28;20391;-72
2021/11/05 06:40:52;;;;;;;2.65;1.58;;;7.70;86.80;;;;;;5024404;28;20057;-73
2021/11/05 06:43:18;;;;;;;4.28;1.85;;;7.70;86.70;;;;;;5024210;28;20033;-73
2021/11/05 06:45:44;;;;;;;2.17;1.70;;;7.70;86.70;;;;;;5022566;28;20108;-72
2021/11/05 06:48:11;;;;;;;2.78;1.90;;;7.60;86.70;;;;;;5025140;28;20164;-73
2021/11/05 06:50:38;;;;;;;2.28;1.48;;;7.60;86.70;;;;;;5025457;28;20436;-73
2021/11/05 06:53:03;;;;;;;3.03;1.95;;;7.60;86.70;;;;;;5029810;28;20128;-74
2021/11/05 06:55:29;;;;;;;3.47;1.92;;;7.50;86.80;;;;;;5024536;28;20253;-73
2021/11/05 06:57:55;;;;;;;3.88;1.88;;;7.50;86.80;;;;;;5029889;28;20025;-73
2021/11/05 07:00:20;;;;;;;2.03;1.75;;;7.50;86.80;;;;;;5026246;28;20029;-73
2021/11/05 07:02:46;;;;;;;1.70;1.60;;;7.50;86.80;;;;;;5023167;28;20384;-73
2021/11/05 07:05:14;;;;;;;2.70;1.60;;;7.40;86.80;;;;;;5027128;28;20033;-73
2021/11/05 07:07:41;;;;;;;3.30;1.88;;;7.40;86.70;;;;;;5029528;28;20020;-72
2021/11/05 07:10:08;;;;;;;2.30;1.98;;;7.40;86.70;;;;;;5025368;28;20124;-73
2021/11/05 07:12:33;;;;;;;3.28;1.90;;;7.40;86.70;;;;;;5025472;28;20052;-73
2021/11/05 07:14:59;;;;;;;4.25;1.65;;;7.40;86.70;;;;;;5027361;28;20026;-74
2021/11/05 07:17:25;;;;;;;2.25;1.98;;;7.40;86.70;;;;;;5026515;28;20030;-73
2021/11/05 07:19:50;;;;;;;3.03;2.00;;;7.40;86.70;;;;;;5027997;28;20021;-74
2021/11/05 07:22:17;;;;;;;2.00;1.80;;;7.40;86.70;;;;;;5025960;28;20041;-72
2021/11/05 07:24:44;;;;;;;2.30;2.05;;;7.40;87.30;;;;;;5028612;28;20057;-82
2021/11/05 07:27:10;;;;;;;3.38;2.28;;;7.40;86.70;;;;;;5024428;28;20033;-83
2021/11/05 07:29:36;;;;;;;2.72;1.73;;;7.40;86.70;;;;;;5025951;28;20022;-74
2021/11/05 07:32:06;;;;;;;2.10;1.90;;;7.40;86.60;;;;;;5029734;28;20325;-74
2021/11/05 07:34:32;;;;;;;3.17;2.10;;;7.40;86.60;;;;;;5028520;28;20044;-73
2021/11/05 07:37:02;;;;;;;1.70;1.60;;;7.40;86.60;;;;;;5028341;28;20022;-74
2021/11/05 07:39:28;;;;;;;2.83;2.20;;;7.40;86.60;;;;;;5030310;28;20032;-73
2021/11/05 07:41:54;;;;;;;3.78;2.50;;;7.50;86.50;;;;;;5028552;28;20029;-73
2021/11/05 07:44:19;;;;;;;3.22;2.70;;;7.50;86.60;;;;;;5029645;28;20419;-74
2021/11/05 07:46:46;;;;;;;2.00;1.80;;;7.50;86.50;;;;;;5028547;28;20105;-74
2021/11/05 07:49:13;;;;;;;2.10;1.90;;;7.50;86.60;;;;;;5028830;28;20116;-73
2021/11/05 07:51:38;;;;;;;3.17;2.72;;;7.50;86.50;;;;;;5026532;28;20043;-73
2021/11/05 07:54:04;;;;;;;2.10;1.90;;;7.50;86.50;;;;;;5029820;28;20026;-73
2021/11/05 07:56:30;;;;;;;3.28;2.83;;;7.60;86.60;;;;;;5026420;28;20028;-74
2021/11/05 07:58:55;;;;;;;2.83;2.47;;;7.60;86.60;;;;;;5028351;28;20109;-74
2021/11/05 08:01:22;;;;;;;2.35;1.85;;;7.70;86.60;;;;;;5030691;28;20029;-73
2021/11/05 08:03:48;;;;;;;4.03;2.28;;;7.70;86.70;;;;;;5029834;28;20032;-73
2021/11/05 08:06:13;;;;;;;2.40;2.13;;;7.70;86.70;;;;;;5029474;28;20034;-73
2021/11/05 08:08:39;;;;;;;3.33;2.40;;;7.80;86.70;;;;;;5027953;28;20025;-74
2021/11/05 08:11:05;;;;;;;3.08;2.53;;;7.80;86.70;;;;;;5055002;28;20036;-74
2021/11/05 08:13:30;;;;;;;4.28;2.55;;;7.90;86.70;;;;;;5024861;28;20034;-73
2021/11/05 08:15:56;;;;;;;2.85;2.55;;;7.90;86.60;;;;;;5029882;28;20036;-74
2021/11/05 08:18:22;;;;;;;4.10;2.80;;;8.00;86.60;;;;;;5025095;28;20053;-73
2021/11/05 08:20:47;;;;;;;4.15;2.38;;;8.00;86.60;;;;;;5027079;28;20393;-74
2021/11/05 08:23:13;;;;;;;3.42;2.42;;;8.00;86.50;;;;;;5028572;28;20053;-74
2021/11/05 08:25:39;;;;;;;3.75;2.97;;;8.10;86.60;;;;;;5027327;28;20037;-73
2021/11/05 08:28:05;;;;;;;3.72;3.00;;;8.10;86.70;;;;;;5027907;28;20026;-72
2021/11/05 08:30:31;;;;;;;2.33;2.10;;;8.10;86.80;;;;;;5027179;28;20029;-73
2021/11/05 08:32:59;;;;;;;2.92;2.60;;;8.20;86.80;;;;;;5024038;28;20140;-73
2021/11/05 08:35:28;;;;;;;3.33;2.58;;;8.20;86.80;;;;;;5027242;28;20538;-73
2021/11/05 08:37:54;;;;;;;2.70;2.42;;;8.20;86.80;;;;;;5024867;28;20370;-73
2021/11/05 08:40:21;;;;;;;2.85;2.47;;;8.30;86.90;;;;;;5028355;28;20022;-73
2021/11/05 08:42:47;;;;;;;2.35;2.10;;;8.30;86.90;;;;;;5029061;28;20095;-73
2021/11/05 08:45:13;;;;;;;4.35;2.92;;;8.40;87.10;;;;;;5022776;28;20028;-74
2021/11/05 08:47:40;;;;;;;5.05;3.10;;;8.40;87.10;;;;;;5028973;28;20030;-74
2021/11/05 08:50:14;;;;;;;3.78;2.50;;;8.50;87.20;;;;;;5027478;28;20039;-73
2021/11/05 08:52:40;;;;;;;5.03;2.90;;;8.60;87.20;;;;;;5026191;28;20044;-72
2021/11/05 08:55:08;;;;;;;2.65;1.95;;;8.80;87.10;;;;;;5027932;28;20075;-73
2021/11/05 08:57:36;;;;;;;2.53;1.80;;;8.90;87.10;;;;;;5026030;28;20032;-73
2021/11/05 09:00:05;;;;;;;4.68;2.70;;;9.10;86.90;;;;;;5025466;28;20488;-73
2021/11/05 09:02:30;;;;;;;3.55;2.28;;;9.10;86.90;;;;;;5026561;28;20025;-74
2021/11/05 09:04:56;;;;;;;3.17;2.13;;;9.20;86.80;;;;;;5026689;28;20096;-74
2021/11/05 09:07:21;;;;;;;3.65;2.53;;;9.20;86.70;;;;;;5029093;28;20072;-74
2021/11/05 09:09:47;;;;;;;2.60;2.00;;;9.30;86.70;;;;;;5025596;28;20062;-73
2021/11/05 09:12:13;;;;;;;4.00;2.63;;;9.30;86.70;;;;;;5023186;28;20072;-74
2021/11/05 09:14:38;;;;;;;4.55;3.00;;;9.40;86.70;;;;;;5026167;28;20029;-74
2021/11/05 09:17:05;;;;;;;2.70;2.20;;;9.40;86.60;;;;;;5027631;28;20143;-73
2021/11/05 09:19:30;;;;;;;3.80;2.67;;;9.50;86.70;;;;;;5027888;28;20457;-74
2021/11/05 09:21:56;;;;;;;3.45;2.53;;;9.50;86.70;;;;;;5025835;28;20057;-74
2021/11/05 09:24:21;;;;;;;3.67;2.53;;;9.60;86.90;;;;;;5027303;28;20055;-74
2021/11/05 09:26:47;;;;;;;3.88;2.60;;;9.70;86.90;;;;;;5029836;28;20039;-74
2021/11/05 09:29:13;;;;;;;4.72;2.40;;;9.80;86.80;;;;;;5022410;28;20017;-73
2021/11/05 09:31:40;;;;;;;4.20;2.03;;;9.80;86.80;;;;;;5025287;28;21380;-73
2021/11/05 09:34:06;;;;;;;2.40;1.70;;;9.90;86.70;;;;;;5025750;28;20037;-73
2021/11/05 09:36:32;;;;;;;3.03;2.10;;;10.00;86.60;;;;;;5028689;28;20496;-73
2021/11/05 09:38:57;;;;;;;2.90;1.90;;;10.10;86.60;;;;;;5026320;28;20076;-73
2021/11/05 09:41:23;;;;;;;3.38;1.60;;;10.10;86.50;;;;;;5026262;28;20726;-74
2021/11/05 09:43:49;;;;;;;4.20;2.15;;;10.20;86.50;;;;;;5028132;28;20056;-73
2021/11/05 09:46:14;;;;;;;3.83;2.03;;;10.30;86.40;;;;;;5028031;28;20499;-73
2021/11/05 09:48:42;;;;;;;4.63;2.10;;;10.40;86.30;;;;;;5024003;28;20030;-74
2021/11/05 09:51:09;;;;;;;2.50;1.80;;;10.50;86.20;;;;;;5024285;28;20029;-74
2021/11/05 09:53:37;;;;;;;3.60;2.03;;;10.60;86.20;;;;;;5024176;28;20079;-74
2021/11/05 09:56:05;;;;;;;3.15;2.20;;;10.70;86.10;;;;;;5027072;28;20132;-74
2021/11/05 09:58:31;;;;;;;3.83;1.92;;;10.70;86.00;;;;;;5028666;28;20025;-74
2021/11/05 10:00:57;;;;;;;2.72;1.70;;;10.80;86.00;;;;;;5027852;28;20041;-74
2021/11/05 10:03:23;;;;;;;3.67;1.90;;;10.90;85.90;;;;;;5026223;28;20362;-74
2021/11/05 10:05:55;;;;;;;4.15;2.10;;;10.90;85.80;;;;;;5025921;28;20045;-74
2021/11/05 10:08:32;;;;;;;3.53;2.10;;;11.00;85.70;;;;;;5027060;28;20108;-75
2021/11/05 10:10:59;;;;;;;5.85;2.42;;;11.10;85.70;;;;;;5025361;28;20026;-74
2021/11/05 10:13:27;;;;;;;4.30;2.08;;;11.10;85.70;;;;;;5028058;28;20042;-73
2021/11/05 10:15:56;;;;;;;2.83;2.10;;;11.20;85.80;;;;;;5029895;28;20017;-74
2021/11/05 10:18:29;;;;;;;3.72;2.00;;;11.20;85.80;;;;;;5027474;28;20036;-73
2021/11/05 10:21:12;;;;;;;2.95;2.00;;;11.20;85.70;;;;;;5024945;28;20049;-74
2021/11/05 10:23:40;;;;;;;3.88;1.90;;;11.30;85.70;;;;;;5030029;28;20049;-74
2021/11/05 10:26:17;;;;;;;4.50;2.10;;;11.40;85.70;;;;;;5027143;28;20022;-73
2021/11/05 10:28:43;;;;;;;4.88;2.03;;;11.50;85.60;;;;;;5027876;28;20041;-73
2021/11/05 10:31:10;;;;;;;3.20;2.00;;;11.60;85.60;;;;;;5025067;28;20480;-74
2021/11/05 10:33:43;;;;;;;3.60;1.73;;;11.60;85.50;;;;;;5027935;28;20033;-73
2021/11/05 10:36:18;;;;;;;3.50;2.15;;;11.60;85.40;;;;;;5029102;28;20468;-74
2021/11/05 10:38:55;;;;;;;4.60;2.10;;;11.70;85.50;;;;;;5028795;28;20464;-74
2021/11/05 10:41:23;;;;;;;2.22;1.38;;;11.70;85.50;;;;;;5028079;28;20637;-74
2021/11/05 10:43:51;;;;;;;4.03;1.90;;;11.70;85.40;;;;;;5029172;28;20203;-74
2021/11/05 10:46:36;;;;;;;3.85;2.00;;;11.80;85.40;;;;;;5023240;28;20029;-73
2021/11/05 10:49:07;;;;;;;2.30;1.50;;;11.80;85.30;;;;;;5029720;28;20028;-73
2021/11/05 10:51:34;;;;;;;1.42;1.20;;;11.90;85.30;;;;;;5024165;28;20053;-74
2021/11/05 10:54:02;;;;;;;3.28;1.45;;;11.90;85.30;;;;;;5026990;28;20033;-74
2021/11/05 10:56:29;;;;;;;2.55;1.48;;;12.00;85.20;;;;;;5029859;28;20033;-74
2021/11/05 10:58:57;;;;;;;3.47;1.45;;;12.00;85.10;;;;;;5028462;28;20420;-74
2021/11/05 11:01:26;;;;;;;4.80;1.70;;;12.10;85.10;;;;;;5032430;28;20076;-74
2021/11/05 11:03:54;;;;;;;3.30;1.60;;;12.20;85.00;;;;;;5031574;28;20026;-74
2021/11/05 11:06:24;;;;;;;2.47;1.50;;;12.30;84.90;;;;;;5032940;28;20044;-74
2021/11/05 11:08:52;;;;;;;3.42;1.30;;;12.30;84.70;;;;;;5031039;28;20087;-75
2021/11/05 11:11:28;;;;;;;3.85;1.52;;;12.50;84.80;;;;;;5035047;28;20329;-75
2021/11/05 11:13:59;;;;;;;2.85;1.30;;;12.60;84.50;;;;;;5028755;28;20393;-75
2021/11/05 11:16:32;;;;;;;4.07;1.60;;;12.70;84.40;;;;;;5031081;28;20038;-74
2021/11/05 11:19:02;;;;;;;5.13;1.40;;;12.60;84.00;;;;;;5031788;28;20030;-74
2021/11/05 11:21:34;;;;;;;2.80;1.33;;;12.70;83.90;;;;;;5030595;28;20025;-75
2021/11/05 11:24:00;;;;;;;2.67;1.30;;;12.70;83.80;;;;;;5031341;28;20455;-75
2021/11/05 11:26:27;;;;;;;2.45;1.30;;;12.70;83.70;;;;;;5028747;28;20029;-75
2021/11/05 11:28:53;;;;;;;1.75;1.10;;;12.70;83.60;;;;;;5029237;28;20037;-74
2021/11/05 11:31:19;;;;;;;3.28;1.20;;;12.70;83.50;;;;;;5032594;28;20048;-74
2021/11/05 11:33:46;;;;;;;3.83;1.20;;;12.70;83.50;;;;;;5030037;28;20384;-74
2021/11/05 11:36:12;;;;;;;2.05;1.00;;;12.70;83.40;;;;;;5033679;28;20404;-75
2021/11/05 11:38:39;;;;;;;2.80;1.00;;;12.70;83.30;;;;;;5027664;28;20014;-75
2021/11/05 11:41:10;;;;;;;4.43;1.25;;;12.80;83.20;;;;;;5062444;28;20029;-76
2021/11/05 11:43:37;;;;;;;2.67;1.08;;;12.90;83.10;;;;;;5035099;28;20025;-75
2021/11/05 11:46:03;;;;;;;1.48;0.90;;;12.90;82.90;;;;;;5027873;28;20372;-75
2021/11/05 11:48:37;;;;;;;3.42;1.35;;;12.90;82.90;;;;;;5047316;28;20030;-75
2021/11/05 11:51:41;;;;;;;3.50;1.23;;;12.90;82.80;;;;;;5016353;28;20041;-75
2021/11/05 11:54:13;;;;;;;1.75;1.20;;;12.90;83.30;;;;;;5015751;28;20128;-76
2021/11/05 11:56:41;;;;;;;1.63;1.10;;;12.80;82.80;;;;;;5022779;28;20412;-75
2021/11/05 11:59:11;;;;;;;2.17;1.00;;;12.80;82.80;;;;;;5054695;28;20273;-75
2021/11/05 12:01:40;;;;;;;3.80;1.00;;;12.80;82.90;;;;;;5021469;28;20388;-75
2021/11/05 12:04:14;;;;;;;2.35;1.02;;;12.70;82.90;;;;;;5024458;28;20022;-74
2021/11/05 12:06:53;;;;;;;2.00;1.10;;;12.70;83.00;;;;;;5022574;28;20083;-75
2021/11/05 12:09:29;;;;;;;4.18;1.30;;;12.70;83.00;;;;;;5020706;28;20042;-75
2021/11/05 12:12:20;;;;;;;3.88;1.00;;;12.70;82.90;;;;;;5027524;28;20088;-75
2021/11/05 12:15:01;;;;;;;3.47;1.30;;;12.70;83.00;;;;;;5027870;28;20037;-75
2021/11/05 12:17:50;;;;;;;2.05;1.08;;;12.70;82.90;;;;;;5032372;28;20024;-74
2021/11/05 12:20:37;;;;;;;1.58;0.90;;;12.70;82.90;;;;;;5031154;28;20432;-74
2021/11/05 12:23:09;;;;;;;1.95;0.80;;;12.70;82.80;;;;;;5031666;28;20025;-75
2021/11/05 12:25:56;;;;;;;2.35;1.10;;;12.70;82.80;;;;;;5027623;28;20366;-75
2021/11/05 12:28:41;;;;;;;1.33;0.90;;;12.70;82.90;;;;;;5031415;28;20036;-75
2021/11/05 12:31:24;;;;;;;3.38;1.00;;;12.70;82.90;;;;;;5028033;28;20048;-75
2021/11/05 12:33:50;;;;;;;3.45;0.85;;;12.70;82.80;;;;;;5026477;28;20121;-74
2021/11/05 12:36:15;;;;;;;3.88;1.30;;;12.70;82.90;;;;;;5029527;28;20108;-75
2021/11/05 12:39:05;;;;;;;2.00;1.00;;;12.70;82.90;;;;;;5026878;28;20036;-75
2021/11/05 12:41:31;;;;;;;3.13;1.00;;;12.70;82.90;;;;;;5028665;28;20032;-75
2021/11/05 12:44:12;;;;;;;1.92;0.70;;;12.70;82.80;;;;;;5027206;28;20036;-75
2021/11/05 12:46:47;;;;;;;3.50;1.00;;;12.70;82.80;;;;;;5031780;28;20502;-75
2021/11/05 12:49:20;;;;;;;1.52;0.90;;;12.60;82.50;;;;;;5031294;28;20083;-75
2021/11/05 12:51:49;;;;;;;4.15;1.10;;;12.50;82.50;;;;;;5033290;28;20029;-75
2021/11/05 12:54:22;;;;;;;2.50;0.80;;;12.40;82.70;;;;;;5028782;28;20032;-75
2021/11/05 12:56:53;;;;;;;1.83;0.70;;;12.30;82.80;;;;;;5028162;28;20021;-76